createdAt,value
2018-12-20T00:01:37.424Z,90.07
2018-12-20T00:04:08.214Z,89.55
2018-12-20T00:06:39.284Z,89.93
2018-12-20T00:09:12.356Z,90.03
2018-12-20T00:11:43.272Z,89.67
2018-12-20T00:14:14.218Z,90.08
2018-12-20T00:16:47.454Z,90.15
2018-12-20T00:19:25.273Z,89.89
2018-12-20T00:21:56.899Z,90.17
2018-12-20T00:24:30.570Z,90.11
2018-12-20T00:27:04.846Z,90.06
2018-12-20T00:29:38.293Z,89.91
2018-12-20T00:32:10.056Z,90.33
2018-12-20T00:34:43.374Z,90.22
2018-12-20T00:37:14.810Z,90.68
2018-12-20T00:39:47.866Z,90.41
2018-12-20T00:42:20.953Z,90.40
2018-12-20T00:44:52.474Z,90.80
2018-12-20T00:47:23.587Z,91.07
2018-12-20T00:49:56.848Z,91.01
2018-12-20T00:52:30.121Z,91.10
2018-12-20T00:55:02.929Z,91.19
2018-12-20T00:57:34.725Z,91.18
2018-12-20T01:00:10.272Z,91.29
2018-12-20T01:02:41.711Z,91.42
2018-12-20T01:05:14.765Z,91.18
2018-12-20T01:07:46.235Z,90.93
2018-12-20T01:10:17.346Z,91.36
2018-12-20T01:12:50.712Z,91.49
2018-12-20T01:15:22.493Z,91.71
2018-12-20T01:17:53.007Z,91.91
2018-12-20T01:20:24.097Z,91.88
2018-12-20T01:25:47.194Z,92.63
2018-12-20T01:28:20.318Z,92.70
2018-12-20T01:30:53.611Z,92.53
2018-12-20T01:33:25.053Z,92.56
2018-12-20T01:35:56.198Z,92.73
2018-12-20T01:38:27.422Z,92.55
2018-12-20T01:40:58.968Z,92.60
2018-12-20T01:43:29.848Z,92.72
2018-12-20T01:46:05.491Z,93.18
2018-12-20T01:48:41.426Z,93.03
2018-12-20T01:51:14.410Z,93.15
2018-12-20T01:53:47.745Z,93.23
2018-12-20T01:56:19.306Z,93.48
2018-12-20T01:58:50.422Z,93.72
2018-12-20T02:01:21.408Z,93.47
2018-12-20T02:03:54.947Z,94.05
2018-12-20T02:06:27.003Z,93.75
2018-12-20T02:08:58.379Z,93.90
2018-12-20T02:11:29.644Z,93.95
2018-12-20T02:14:01.601Z,94.58
2018-12-20T02:16:36.787Z,94.77
2018-12-20T02:19:08.449Z,94.15
2018-12-20T02:21:39.591Z,93.62
2018-12-20T02:24:10.447Z,92.84
2018-12-20T02:26:43.894Z,92.29
2018-12-20T02:29:15.425Z,91.94
2018-12-20T02:31:48.655Z,91.89
2018-12-20T02:34:19.934Z,91.77
2018-12-20T02:36:53.452Z,91.34
2018-12-20T02:39:24.976Z,91.09
2018-12-20T02:41:58.517Z,91.55
2018-12-20T02:44:32.071Z,91.58
2018-12-20T02:49:59.709Z,91.74
2018-12-20T02:52:32.862Z,91.68
2018-12-20T02:55:07.031Z,92.32
2018-12-20T02:57:42.185Z,92.51
2018-12-20T03:00:15.866Z,92.62
2018-12-20T03:02:49.603Z,92.45
2018-12-20T03:05:21.014Z,91.87
2018-12-20T03:07:52.365Z,92.03
2018-12-20T03:10:23.336Z,92.03
2018-12-20T03:12:56.665Z,92.00
2018-12-20T03:15:28.235Z,91.51
2018-12-20T03:18:03.404Z,91.72
2018-12-20T03:20:35.096Z,91.36
2018-12-20T03:23:08.476Z,91.26
2018-12-20T03:25:39.147Z,90.78
2018-12-20T03:28:13.538Z,90.95
2018-12-20T03:30:47.326Z,91.12
2018-12-20T03:33:23.088Z,91.10
2018-12-20T03:35:58.219Z,91.44
2018-12-20T03:38:29.801Z,91.48
2018-12-20T03:41:03.391Z,91.36
2018-12-20T03:43:34.909Z,91.55
2018-12-20T03:46:08.265Z,90.90
2018-12-20T03:48:39.572Z,91.15
2018-12-20T03:51:10.525Z,91.43
2018-12-20T03:53:43.948Z,91.09
2018-12-20T03:56:17.642Z,90.97
2018-12-20T03:58:50.721Z,91.33
2018-12-20T04:01:22.443Z,91.02
2018-12-20T04:03:56.609Z,91.38
2018-12-20T04:06:31.425Z,91.37
2018-12-20T04:09:05.889Z,91.35
2018-12-20T04:11:39.572Z,91.73
2018-12-20T04:14:11.186Z,91.36
2018-12-20T04:16:44.924Z,91.33
2018-12-20T04:19:22.858Z,91.10
2018-12-20T04:21:58.988Z,90.92
2018-12-20T04:24:32.212Z,90.80
2018-12-20T04:27:03.840Z,91.10
2018-12-20T04:29:43.758Z,90.81
2018-12-20T04:32:19.033Z,91.06
2018-12-20T04:34:51.950Z,90.67
2018-12-20T04:37:32.176Z,90.54
2018-12-20T04:40:05.353Z,90.15
2018-12-20T04:42:36.793Z,90.40
2018-12-20T04:45:10.497Z,90.02
2018-12-20T04:47:45.009Z,89.98
2018-12-20T04:50:20.101Z,90.31
2018-12-20T04:52:54.094Z,90.02
2018-12-20T04:55:25.377Z,90.09
2018-12-20T04:57:56.258Z,90.20
2018-12-20T05:00:27.022Z,89.84
2018-12-20T05:03:00.683Z,89.84
2018-12-20T05:05:34.918Z,90.22
2018-12-20T05:08:08.530Z,90.39
2018-12-20T05:10:39.576Z,90.57
2018-12-20T05:13:10.601Z,90.36
2018-12-20T05:15:41.579Z,90.45
2018-12-20T05:18:12.464Z,89.94
2018-12-20T05:20:43.474Z,89.59
2018-12-20T05:23:17.038Z,89.71
2018-12-20T05:25:50.343Z,89.48
2018-12-20T05:28:24.285Z,89.39
2018-12-20T05:30:55.820Z,89.28
2018-12-20T05:33:29.088Z,89.29
2018-12-20T05:36:02.884Z,89.93
2018-12-20T05:38:36.454Z,90.12
2018-12-20T05:41:07.768Z,90.02
2018-12-20T05:43:38.558Z,90.07
2018-12-20T05:46:16.281Z,90.59
2018-12-20T05:48:47.305Z,90.48
2018-12-20T05:53:54.378Z,90.66
2018-12-20T05:56:28.404Z,90.71
2018-12-20T05:59:02.077Z,90.27
2018-12-20T06:01:33.556Z,89.92
2018-12-20T06:04:04.517Z,89.94
2018-12-20T06:06:35.469Z,90.46
2018-12-20T06:09:09.033Z,89.79
2018-12-20T06:11:42.648Z,89.71
2018-12-20T06:14:14.135Z,89.48
2018-12-20T06:16:48.101Z,89.13
2018-12-20T06:19:18.958Z,88.95
2018-12-20T06:21:53.950Z,88.69
2018-12-20T06:24:26.935Z,88.69
2018-12-20T06:26:59.852Z,88.93
2018-12-20T06:29:32.881Z,89.03
2018-12-20T06:32:04.305Z,89.04
2018-12-20T06:34:37.652Z,88.87
2018-12-20T06:37:09.013Z,88.73
2018-12-20T06:39:42.602Z,88.76
2018-12-20T06:42:13.943Z,88.91
2018-12-20T06:44:47.334Z,89.31
2018-12-20T06:47:18.948Z,88.97
2018-12-20T06:49:52.303Z,89.65
2018-12-20T06:52:27.166Z,89.43
2018-12-20T06:55:02.615Z,89.49
2018-12-20T06:57:33.697Z,90.02
2018-12-20T07:00:05.402Z,89.49
2018-12-20T07:02:39.066Z,89.24
2018-12-20T07:05:16.734Z,88.57
2018-12-20T07:07:51.927Z,88.47
2018-12-20T07:10:24.884Z,88.92
2018-12-20T07:12:59.814Z,88.46
2018-12-20T07:15:30.488Z,88.97
2018-12-20T07:18:04.021Z,89.11
2018-12-20T07:20:39.668Z,89.44
2018-12-20T07:23:12.801Z,89.37
2018-12-20T07:25:55.102Z,89.22
2018-12-20T07:28:30.111Z,89.33
2018-12-20T07:31:03.213Z,88.89
2018-12-20T07:33:35.029Z,88.81
2018-12-20T07:36:12.002Z,88.77
2018-12-20T07:38:45.154Z,88.57
2018-12-20T07:41:16.528Z,88.76
2018-12-20T07:43:49.692Z,89.22
2018-12-20T07:46:21.931Z,88.92
2018-12-20T07:48:57.862Z,88.90
2018-12-20T07:51:30.198Z,88.89
2018-12-20T07:54:04.699Z,89.07
2018-12-20T07:56:45.723Z,88.91
2018-12-20T08:01:51.399Z,88.04
2018-12-20T08:04:27.588Z,87.80
2018-12-20T08:06:59.158Z,87.05
2018-12-20T08:09:39.385Z,87.01
2018-12-20T08:12:12.825Z,86.37
2018-12-20T08:14:44.228Z,86.35
2018-12-20T08:17:28.253Z,86.61
2018-12-20T08:20:01.952Z,86.14
2018-12-20T08:22:53.457Z,86.44
2018-12-20T08:25:28.617Z,86.18
2018-12-20T08:28:08.680Z,86.56
2018-12-20T08:30:53.265Z,86.32
2018-12-20T08:33:33.553Z,86.44
2018-12-20T08:36:07.046Z,86.41
2018-12-20T08:38:38.593Z,86.30
2018-12-20T08:41:11.785Z,85.93
2018-12-20T08:43:43.119Z,86.08
2018-12-20T08:46:14.465Z,85.70
2018-12-20T08:48:47.615Z,85.67
2018-12-20T08:51:19.254Z,85.12
2018-12-20T08:53:52.826Z,85.29
2018-12-20T08:56:27.080Z,85.39
2018-12-20T08:59:01.086Z,85.70
2018-12-20T09:01:32.410Z,84.82
2018-12-20T09:04:05.589Z,83.98
2018-12-20T09:06:37.033Z,83.68
2018-12-20T09:09:10.035Z,83.05
2018-12-20T09:11:41.240Z,82.57
2018-12-20T09:14:16.228Z,82.42
2018-12-20T09:16:51.669Z,81.52
2018-12-20T09:19:23.017Z,80.84
2018-12-20T09:21:55.994Z,80.27
2018-12-20T09:24:27.755Z,79.83
2018-12-20T09:27:01.918Z,80.00
2018-12-20T09:29:37.776Z,79.11
2018-12-20T09:32:09.236Z,77.66
2018-12-20T09:34:42.550Z,78.27
2018-12-20T09:37:13.997Z,77.86
2018-12-20T09:39:49.434Z,77.23
2018-12-20T09:42:20.865Z,75.59
2018-12-20T09:44:58.260Z,75.57
2018-12-20T09:47:36.884Z,74.90
2018-12-20T09:50:10.311Z,74.39
2018-12-20T09:52:45.178Z,74.96
2018-12-20T09:55:15.831Z,74.79
2018-12-20T09:57:50.123Z,74.84
2018-12-20T10:00:25.013Z,75.08
2018-12-20T10:02:58.811Z,75.72
2018-12-20T10:05:33.565Z,76.10
2018-12-20T10:08:13.036Z,76.36
2018-12-20T10:10:48.039Z,76.57
2018-12-20T10:13:22.280Z,76.23
2018-12-20T10:16:00.285Z,75.88
2018-12-20T10:18:35.990Z,76.48
2018-12-20T10:21:09.561Z,76.16
2018-12-20T10:23:44.441Z,76.94
2018-12-20T10:26:19.205Z,76.61
2018-12-20T10:28:59.361Z,75.66
2018-12-20T10:31:39.242Z,76.30
2018-12-20T10:34:19.027Z,75.66
2018-12-20T10:36:58.862Z,75.80
2018-12-20T10:39:34.034Z,76.43
2018-12-20T10:42:09.662Z,76.68
2018-12-20T10:44:45.657Z,77.45
2018-12-20T10:47:29.283Z,77.71
2018-12-20T10:50:06.103Z,77.67
2018-12-20T10:52:40.415Z,77.45
2018-12-20T10:55:15.329Z,77.28
2018-12-20T10:57:53.020Z,77.49
2018-12-20T11:00:32.534Z,78.06
2018-12-20T11:03:12.871Z,78.29
2018-12-20T11:05:52.915Z,78.62
2018-12-20T11:08:29.336Z,78.09
2018-12-20T11:11:06.030Z,78.52
2018-12-20T11:13:40.643Z,78.83
2018-12-20T11:16:20.951Z,79.16
2018-12-20T11:18:56.408Z,78.99
2018-12-20T11:21:31.528Z,78.71
2018-12-20T11:24:06.719Z,78.84
2018-12-20T11:26:44.296Z,78.24
2018-12-20T11:29:25.026Z,78.61
2018-12-20T11:32:05.234Z,78.76
2018-12-20T11:34:41.191Z,78.13
2018-12-20T11:37:15.001Z,78.29
2018-12-20T11:39:49.093Z,78.69
2018-12-20T11:42:30.091Z,77.92
2018-12-20T11:45:04.271Z,78.06
2018-12-20T11:47:45.941Z,78.02
2018-12-20T11:50:23.396Z,77.42
2018-12-20T11:53:00.584Z,77.45
2018-12-20T11:55:38.436Z,77.27
2018-12-20T11:58:16.223Z,76.92
2018-12-20T12:00:50.230Z,77.01
2018-12-20T12:03:20.977Z,77.22
2018-12-20T12:05:57.424Z,77.12
2018-12-20T12:08:32.103Z,77.45
2018-12-20T12:11:06.322Z,76.65
2018-12-20T12:13:42.430Z,77.11
2018-12-20T12:16:21.799Z,76.96
2018-12-20T12:18:57.256Z,76.93
2018-12-20T12:21:34.424Z,77.02
2018-12-20T12:24:10.094Z,77.26
2018-12-20T12:26:51.112Z,76.74
2018-12-20T12:29:25.266Z,76.99
2018-12-20T12:31:59.437Z,76.95
2018-12-20T12:34:37.114Z,77.23
2018-12-20T12:37:12.218Z,76.54
2018-12-20T12:39:45.962Z,76.09
2018-12-20T12:42:25.396Z,76.25
2018-12-20T12:45:02.270Z,76.68
2018-12-20T12:47:42.047Z,76.09
2018-12-20T12:50:19.146Z,76.37
2018-12-20T12:52:53.789Z,75.43
2018-12-20T12:55:28.819Z,75.62
2018-12-20T12:58:04.900Z,75.91
2018-12-20T13:00:39.669Z,76.44
2018-12-20T13:03:14.766Z,76.16
2018-12-20T13:05:49.564Z,76.14
2018-12-20T13:08:24.600Z,76.07
2018-12-20T13:10:59.705Z,76.35
2018-12-20T13:13:34.464Z,75.46
2018-12-20T13:16:08.422Z,76.44
2018-12-20T13:18:43.460Z,75.76
2018-12-20T13:21:17.848Z,75.83
2018-12-20T13:23:52.800Z,76.04
2018-12-20T13:26:26.054Z,76.51
2018-12-20T13:29:01.566Z,75.99
2018-12-20T13:31:33.145Z,75.75
2018-12-20T13:34:07.396Z,75.71
2018-12-20T13:36:42.345Z,76.42
2018-12-20T13:39:21.956Z,76.02
2018-12-20T13:41:59.319Z,76.35
2018-12-20T13:44:34.387Z,76.02
2018-12-20T13:47:06.210Z,76.25
2018-12-20T13:49:41.071Z,75.95
2018-12-20T13:52:18.882Z,76.39
2018-12-20T13:54:55.839Z,76.66
2018-12-20T13:57:30.640Z,76.39
2018-12-20T14:00:14.889Z,77.13
2018-12-20T14:02:49.446Z,77.19
2018-12-20T14:05:22.723Z,77.92
2018-12-20T14:07:59.011Z,78.28
2018-12-20T14:10:34.713Z,77.81
2018-12-20T14:13:09.543Z,78.36
2018-12-20T14:15:46.400Z,78.27
2018-12-20T14:18:21.623Z,78.47
2018-12-20T14:20:56.474Z,78.75
2018-12-20T14:23:28.200Z,78.33
2018-12-20T14:26:05.267Z,78.66
2018-12-20T14:28:40.185Z,78.39
2018-12-20T14:31:15.059Z,78.50
2018-12-20T14:33:49.829Z,78.40
2018-12-20T14:36:30.393Z,78.38
2018-12-20T14:39:10.390Z,77.90
2018-12-20T14:41:44.809Z,78.32
2018-12-20T14:44:19.854Z,78.24
2018-12-20T14:46:55.385Z,78.48
2018-12-20T14:49:29.590Z,78.44
2018-12-20T14:52:09.041Z,78.78
2018-12-20T14:54:44.602Z,78.91
2018-12-20T14:57:19.649Z,78.83
2018-12-20T14:59:56.516Z,78.63
2018-12-20T15:02:34.981Z,79.12
2018-12-20T15:05:13.531Z,78.99
2018-12-20T15:07:51.282Z,78.88
2018-12-20T15:10:31.520Z,78.75
2018-12-20T15:13:07.395Z,78.37
2018-12-20T15:15:46.692Z,78.99
2018-12-20T15:18:26.126Z,78.58
2018-12-20T15:21:03.056Z,79.35
2018-12-20T15:23:38.512Z,79.43
2018-12-20T15:26:18.267Z,79.98
2018-12-20T15:28:55.769Z,80.27
2018-12-20T15:31:35.858Z,80.73
2018-12-20T15:34:10.241Z,81.03
2018-12-20T15:36:46.101Z,81.10
2018-12-20T15:39:27.759Z,80.83
2018-12-20T15:42:02.371Z,80.71
2018-12-20T15:44:36.376Z,80.87
2018-12-20T15:47:11.176Z,80.16
2018-12-20T15:49:46.257Z,80.25
2018-12-20T15:52:25.876Z,80.07
2018-12-20T15:55:05.411Z,80.32
2018-12-20T15:57:40.805Z,80.18
2018-12-20T16:00:15.669Z,79.64
2018-12-20T16:02:50.783Z,79.73
2018-12-20T16:05:23.032Z,79.39
2018-12-20T16:08:03.677Z,79.82
2018-12-20T16:10:44.093Z,79.66
2018-12-20T16:13:20.319Z,79.81
2018-12-20T16:15:55.366Z,79.62
2018-12-20T16:18:31.155Z,80.05
2018-12-20T16:21:10.555Z,79.47
2018-12-20T16:23:45.861Z,79.97
2018-12-20T16:26:23.256Z,79.65
2018-12-20T16:28:58.611Z,79.61
2018-12-20T16:31:33.481Z,79.27
2018-12-20T16:34:10.438Z,79.41
2018-12-20T16:36:45.555Z,79.36
2018-12-20T16:39:25.804Z,79.64
2018-12-20T16:42:05.475Z,79.66
2018-12-20T16:44:39.721Z,79.59
2018-12-20T16:47:13.299Z,79.22
2018-12-20T16:49:48.660Z,79.61
2018-12-20T16:52:28.325Z,79.73
2018-12-20T16:55:01.741Z,79.53
2018-12-20T16:57:36.706Z,79.69
2018-12-20T17:00:11.616Z,79.89
2018-12-20T17:02:46.745Z,79.58
2018-12-20T17:05:24.714Z,80.04
2018-12-20T17:07:59.547Z,79.91
2018-12-20T17:10:34.435Z,79.67
2018-12-20T17:13:09.237Z,79.60
2018-12-20T17:15:44.220Z,79.67
2018-12-20T17:18:18.306Z,79.94
2018-12-20T17:20:51.718Z,80.27
2018-12-20T17:23:35.641Z,80.32
2018-12-20T17:26:05.792Z,80.88
2018-12-20T17:28:40.702Z,81.16
2018-12-20T17:31:15.603Z,80.85
2018-12-20T17:33:54.931Z,80.91
2018-12-20T17:36:29.529Z,80.67
2018-12-20T17:39:05.965Z,81.01
2018-12-20T17:41:47.535Z,81.22
2018-12-20T17:44:22.989Z,81.00
2018-12-20T17:46:58.170Z,81.28
2018-12-20T17:49:33.127Z,81.59
2018-12-20T17:52:08.118Z,81.77
2018-12-20T17:54:43.023Z,81.62
2018-12-20T17:57:18.007Z,81.78
2018-12-20T17:59:51.847Z,81.98
2018-12-20T18:02:26.973Z,82.74
2018-12-20T18:05:06.826Z,82.87
2018-12-20T18:07:37.771Z,83.62
2018-12-20T18:10:13.058Z,83.43
2018-12-20T18:12:46.863Z,83.76
2018-12-20T18:15:21.796Z,83.14
2018-12-20T18:17:56.762Z,83.33
2018-12-20T18:20:34.158Z,83.12
2018-12-20T18:23:14.392Z,83.70
2018-12-20T18:25:49.960Z,83.67
2018-12-20T18:28:25.860Z,84.37
2018-12-20T18:31:01.798Z,84.45
2018-12-20T18:33:39.969Z,84.27
2018-12-20T18:36:16.607Z,84.71
2018-12-20T18:38:55.350Z,84.45
2018-12-20T18:41:31.873Z,84.37
2018-12-20T18:44:08.972Z,84.36
2018-12-20T18:46:48.563Z,84.38
2018-12-20T18:49:28.379Z,84.76
2018-12-20T18:52:03.032Z,84.55
2018-12-20T18:54:39.086Z,84.38
2018-12-20T18:57:14.841Z,84.17
2018-12-20T18:59:49.659Z,84.37
2018-12-20T19:02:29.251Z,84.13
2018-12-20T19:05:05.366Z,83.88
2018-12-20T19:07:39.794Z,83.88
2018-12-20T19:10:17.155Z,84.01
2018-12-20T19:12:51.996Z,83.63
2018-12-20T19:15:28.975Z,83.43
2018-12-20T19:18:05.858Z,83.64
2018-12-20T19:20:42.954Z,83.09
2018-12-20T19:23:20.903Z,83.24
2018-12-20T19:25:56.437Z,83.31
2018-12-20T19:28:31.508Z,82.94
2018-12-20T19:31:09.300Z,82.70
2018-12-20T19:33:46.278Z,82.63
2018-12-20T19:36:21.025Z,82.96
2018-12-20T19:38:58.089Z,82.79
2018-12-20T19:41:32.718Z,82.46
2018-12-20T19:44:06.854Z,82.64
2018-12-20T19:46:43.639Z,82.67
2018-12-20T19:49:22.267Z,83.00
2018-12-20T19:51:58.901Z,82.48
2018-12-20T19:54:38.281Z,82.76
2018-12-20T19:57:15.056Z,82.42
2018-12-20T19:59:49.245Z,82.31
2018-12-20T20:02:26.071Z,82.01
2018-12-20T20:05:03.128Z,82.37
2018-12-20T20:07:39.449Z,82.84
2018-12-20T20:10:16.034Z,82.83
2018-12-20T20:12:59.706Z,83.08
2018-12-20T20:15:39.948Z,83.15
2018-12-20T20:18:16.535Z,82.88
2018-12-20T20:20:52.488Z,82.93
2018-12-20T20:23:31.176Z,82.75
2018-12-20T20:26:06.012Z,82.16
2018-12-20T20:28:46.126Z,81.86
2018-12-20T20:31:26.916Z,81.83
2018-12-20T20:34:06.788Z,81.61
2018-12-20T20:36:41.356Z,81.23
2018-12-20T20:39:15.202Z,81.26
2018-12-20T20:41:51.144Z,80.70
2018-12-20T20:44:27.872Z,81.17
2018-12-20T20:47:05.181Z,81.46
2018-12-20T20:49:40.942Z,80.97
2018-12-20T20:52:27.490Z,80.92
2018-12-20T20:55:01.731Z,80.77
2018-12-20T20:57:37.253Z,80.77
2018-12-20T21:00:12.485Z,80.39
2018-12-20T21:02:54.995Z,80.56
2018-12-20T21:05:32.817Z,80.22
2018-12-20T21:08:10.735Z,79.90
2018-12-20T21:10:48.404Z,80.17
2018-12-20T21:16:29.209Z,80.42
2018-12-20T21:19:05.281Z,80.73
2018-12-20T21:21:39.806Z,80.81
2018-12-20T21:24:21.323Z,81.27
2018-12-20T21:27:01.946Z,80.97
2018-12-20T21:29:35.271Z,80.65
2018-12-20T21:32:14.756Z,80.84
2018-12-20T21:34:50.208Z,80.64
2018-12-20T21:37:33.621Z,80.75
2018-12-20T21:40:09.058Z,80.10
2018-12-20T21:42:43.808Z,80.57
2018-12-20T21:45:18.705Z,80.60
2018-12-20T21:48:02.062Z,80.66
2018-12-20T21:50:39.094Z,80.09
2018-12-20T21:53:14.014Z,80.02
2018-12-20T21:55:57.581Z,80.35
2018-12-20T21:58:32.936Z,80.14
2018-12-20T22:01:09.925Z,80.00
2018-12-20T22:03:44.922Z,80.27
2018-12-20T22:06:19.978Z,80.39
2018-12-20T22:08:54.350Z,80.54
2018-12-20T22:11:31.513Z,80.60
2018-12-20T22:14:07.274Z,81.05
2018-12-20T22:16:42.109Z,81.06
2018-12-20T22:19:17.032Z,80.38
2018-12-20T22:21:52.340Z,80.24
2018-12-20T22:24:31.590Z,80.35
2018-12-20T22:27:06.785Z,80.10
2018-12-20T22:29:41.878Z,79.79
2018-12-20T22:32:13.405Z,79.37
2018-12-20T22:34:48.521Z,79.36
2018-12-20T22:37:29.274Z,79.17
2018-12-20T22:40:04.123Z,78.59
2018-12-20T22:42:38.798Z,78.60
2018-12-20T22:45:13.829Z,78.58
2018-12-20T22:47:53.682Z,78.78
2018-12-20T22:50:29.095Z,78.50
2018-12-20T22:53:03.328Z,78.31
2018-12-20T22:55:37.019Z,78.97
2018-12-20T22:58:11.243Z,78.79
2018-12-20T23:00:49.043Z,79.45
2018-12-20T23:03:24.725Z,79.10
2018-12-20T23:06:14.522Z,79.53
2018-12-20T23:08:54.103Z,79.87
2018-12-20T23:11:31.582Z,79.11
2018-12-20T23:14:08.570Z,80.02
2018-12-20T23:16:43.374Z,80.74
2018-12-20T23:19:18.399Z,80.73
2018-12-20T23:21:53.440Z,80.94
2018-12-20T23:24:28.394Z,81.10
2018-12-20T23:27:08.001Z,80.79
2018-12-20T23:29:45.587Z,80.96
2018-12-20T23:32:20.634Z,80.51
2018-12-20T23:34:56.405Z,81.00
2018-12-20T23:37:31.612Z,80.87
2018-12-20T23:40:08.565Z,80.89
2018-12-20T23:42:43.551Z,80.97
2018-12-20T23:45:18.588Z,81.43
2018-12-20T23:47:55.814Z,81.18
2018-12-20T23:50:30.973Z,81.40
2018-12-20T23:53:05.788Z,81.28
2018-12-20T23:55:40.827Z,80.84
2018-12-20T23:58:15.629Z,80.90
